createdAt,value
2022-09-17T00:01:31.226Z,96892.09
2022-09-17T00:04:02.096Z,96890.81
2022-09-17T00:06:32.729Z,96888.13
2022-09-17T00:09:00.330Z,96889.56
2022-09-17T00:11:30.781Z,96890.75
2022-09-17T00:14:01.267Z,96893.50
2022-09-17T00:16:31.947Z,96897.72
2022-09-17T00:19:00.953Z,96893.06
2022-09-17T00:21:29.698Z,96895.50
2022-09-17T00:24:00.385Z,96893.88
2022-09-17T00:26:30.214Z,96881.00
2022-09-17T00:28:59.430Z,96887.03
2022-09-17T00:31:28.667Z,96886.53
2022-09-17T00:33:56.874Z,96895.16
2022-09-17T00:36:24.757Z,96899.28
2022-09-17T00:38:53.152Z,96898.91
2022-09-17T00:41:23.426Z,96891.47
2022-09-17T00:43:53.707Z,96889.25
2022-09-17T00:46:30.897Z,96890.22
2022-09-17T00:49:02.134Z,96894.34
2022-09-17T00:51:34.345Z,96902.31
2022-09-17T00:54:04.765Z,96904.09
2022-09-17T00:56:37.235Z,96893.81
2022-09-17T00:59:05.390Z,96898.81
2022-09-17T01:01:34.337Z,96888.97
2022-09-17T01:04:02.050Z,96888.97
2022-09-17T01:06:35.920Z,96896.84
2022-09-17T01:09:26.205Z,96902.72
2022-09-17T01:12:09.424Z,96903.09
2022-09-17T01:14:50.308Z,96910.59
2022-09-17T01:17:28.308Z,96906.94
2022-09-17T01:20:25.952Z,96910.56
2022-09-17T01:23:15.073Z,96907.53
2022-09-17T01:25:53.497Z,96905.47
2022-09-17T01:28:33.882Z,96909.47
2022-09-17T01:31:20.843Z,96902.28
2022-09-17T01:33:54.813Z,96909.31
2022-09-17T01:36:37.107Z,96912.66
2022-09-17T01:39:12.430Z,96910.75
2022-09-17T01:41:45.051Z,96903.44
2022-09-17T01:44:18.712Z,96906.97
2022-09-17T01:46:53.832Z,96895.84
2022-09-17T01:49:25.395Z,96894.13
2022-09-17T01:51:56.155Z,96902.38
2022-09-17T01:54:27.775Z,96903.38
2022-09-17T01:57:02.341Z,96900.13
2022-09-17T01:59:34.685Z,96884.44
2022-09-17T02:02:11.320Z,96880.22
2022-09-17T02:04:44.948Z,96887.13
2022-09-17T02:07:20.601Z,96882.13
2022-09-17T02:09:55.255Z,96887.41
2022-09-17T02:12:31.628Z,96884.91
2022-09-17T02:15:02.347Z,96883.09
2022-09-17T02:17:38.530Z,96886.19
2022-09-17T02:20:07.848Z,96894.13
2022-09-17T02:22:43.716Z,96880.00
2022-09-17T02:25:18.957Z,96885.84
2022-09-17T02:27:56.148Z,96876.44
2022-09-17T02:30:24.286Z,96884.56
2022-09-17T02:32:55.093Z,96880.38
2022-09-17T02:35:23.847Z,96878.22
2022-09-17T02:37:53.268Z,96868.97
2022-09-17T02:40:25.556Z,96870.13
2022-09-17T02:43:09.601Z,96871.94
2022-09-17T02:45:51.056Z,96856.28
2022-09-17T02:48:35.677Z,96851.25
2022-09-17T02:51:21.938Z,96844.97
2022-09-17T02:53:59.290Z,96850.47
2022-09-17T02:56:41.414Z,96852.75
2022-09-17T02:59:19.883Z,96846.38
2022-09-17T03:01:54.721Z,96844.34
2022-09-17T03:04:27.766Z,96844.59
2022-09-17T03:06:57.226Z,96837.63
2022-09-17T03:09:28.326Z,96833.66
2022-09-17T03:11:56.683Z,96841.81
2022-09-17T03:14:24.795Z,96839.56
2022-09-17T03:16:53.135Z,96844.91
2022-09-17T03:19:21.099Z,96841.25
2022-09-17T03:21:50.850Z,96835.19
2022-09-17T03:24:18.934Z,96843.91
2022-09-17T03:26:47.561Z,96853.69
2022-09-17T03:29:15.527Z,96845.13
2022-09-17T03:31:44.066Z,96865.84
2022-09-17T03:34:12.215Z,96859.72
2022-09-17T03:36:40.510Z,96859.56
2022-09-17T03:39:09.950Z,96853.31
2022-09-17T03:41:38.855Z,96839.53
2022-09-17T03:44:06.951Z,96849.69
2022-09-17T03:46:35.445Z,96847.03
2022-09-17T03:49:03.512Z,96833.34
2022-09-17T03:51:31.604Z,96846.88
2022-09-17T03:53:59.648Z,96854.88
2022-09-17T03:56:29.595Z,96843.81
2022-09-17T03:58:59.850Z,96840.84
2022-09-17T04:01:28.969Z,96844.50
2022-09-17T04:03:56.881Z,96855.34
2022-09-17T04:06:25.179Z,96849.41
2022-09-17T04:08:53.122Z,96854.06
2022-09-17T04:11:21.333Z,96852.44
2022-09-17T04:13:50.524Z,96843.13
2022-09-17T04:16:18.655Z,96845.25
2022-09-17T04:18:46.504Z,96863.56
2022-09-17T04:21:14.609Z,96847.78
2022-09-17T04:23:42.400Z,96864.53
2022-09-17T04:26:10.938Z,96863.78
2022-09-17T04:28:38.653Z,96864.69
2022-09-17T04:31:08.293Z,96863.28
2022-09-17T04:33:37.456Z,96867.78
2022-09-17T04:36:05.609Z,96865.72
2022-09-17T04:38:33.527Z,96861.63
2022-09-17T04:41:01.548Z,96859.56
2022-09-17T04:43:29.203Z,96856.69
2022-09-17T04:45:57.231Z,96858.44
2022-09-17T04:48:26.257Z,96863.50
2022-09-17T04:50:54.251Z,96870.09
2022-09-17T04:53:21.946Z,96867.59
2022-09-17T04:55:49.938Z,96878.84
2022-09-17T04:58:17.823Z,96881.41
2022-09-17T05:00:45.805Z,96873.53
2022-09-17T05:03:13.476Z,96873.09
2022-09-17T05:05:42.517Z,96874.97
2022-09-17T05:08:10.218Z,96874.34
2022-09-17T05:10:38.538Z,96873.22
2022-09-17T05:13:06.325Z,96873.25
2022-09-17T05:15:34.336Z,96865.09
2022-09-17T05:18:02.013Z,96872.72
2022-09-17T05:20:29.842Z,96875.69
2022-09-17T05:22:58.817Z,96864.34
2022-09-17T05:25:26.697Z,96876.91
2022-09-17T05:27:56.222Z,96874.44
2022-09-17T05:30:24.425Z,96866.84
2022-09-17T05:33:00.016Z,96873.19
2022-09-17T05:35:27.777Z,96879.28
2022-09-17T05:38:00.416Z,96878.47
2022-09-17T05:40:28.754Z,96886.09
2022-09-17T05:42:59.680Z,96889.03
2022-09-17T05:45:27.671Z,96884.06
2022-09-17T05:47:59.822Z,96892.75
2022-09-17T05:50:29.435Z,96889.91
2022-09-17T05:52:57.493Z,96894.38
2022-09-17T05:55:28.087Z,96892.19
2022-09-17T05:57:56.121Z,96893.19
2022-09-17T06:00:24.198Z,96884.69
2022-09-17T06:02:55.969Z,96894.44
2022-09-17T06:05:24.002Z,96888.56
2022-09-17T06:07:52.304Z,96890.72
2022-09-17T06:10:20.245Z,96884.19
2022-09-17T06:12:49.309Z,96889.00
2022-09-17T06:15:17.209Z,96887.41
2022-09-17T06:17:44.923Z,96886.03
2022-09-17T06:20:12.974Z,96881.03
2022-09-17T06:22:40.640Z,96890.69
2022-09-17T06:25:09.655Z,96893.84
2022-09-17T06:27:37.404Z,96895.56
2022-09-17T06:30:08.140Z,96895.16
2022-09-17T06:32:35.851Z,96896.06
2022-09-17T06:35:03.849Z,96894.91
2022-09-17T06:37:33.805Z,96903.66
2022-09-17T06:40:02.150Z,96899.03
2022-09-17T06:42:30.077Z,96908.13
2022-09-17T06:45:00.378Z,96896.97
2022-09-17T06:47:31.157Z,96900.56
2022-09-17T06:49:59.881Z,96901.09
2022-09-17T06:52:30.039Z,96899.25
2022-09-17T06:55:00.341Z,96899.94
2022-09-17T06:57:30.370Z,96905.38
2022-09-17T06:59:58.108Z,96895.97
2022-09-17T07:02:25.959Z,96911.63
2022-09-17T07:04:58.365Z,96901.75
2022-09-17T07:07:26.281Z,96901.50
2022-09-17T07:09:54.549Z,96913.28
2022-09-17T07:12:25.373Z,96914.56
2022-09-17T07:14:53.417Z,96914.91
2022-09-17T07:17:21.593Z,96920.69
2022-09-17T07:19:52.001Z,96924.34
2022-09-17T07:22:21.360Z,96921.13
2022-09-17T07:24:49.358Z,96929.25
2022-09-17T07:27:17.054Z,96940.47
2022-09-17T07:29:45.691Z,96938.84
2022-09-17T07:32:13.434Z,96946.78
2022-09-17T07:34:41.484Z,96951.53
2022-09-17T07:37:09.125Z,96946.72
2022-09-17T07:39:38.813Z,96952.28
2022-09-17T07:42:06.833Z,96958.41
2022-09-17T07:44:34.846Z,96953.81
2022-09-17T07:47:02.633Z,96958.31
2022-09-17T07:49:31.438Z,96961.13
2022-09-17T07:52:00.544Z,96963.81
2022-09-17T07:54:28.578Z,96953.44
2022-09-17T07:56:57.762Z,96952.88
2022-09-17T07:59:25.509Z,96964.22
2022-09-17T08:01:53.211Z,96964.03
2022-09-17T08:04:24.415Z,96964.91
2022-09-17T08:06:52.103Z,96972.78
2022-09-17T08:09:20.265Z,96976.75
2022-09-17T08:11:56.382Z,96973.53
2022-09-17T08:14:29.686Z,96963.97
2022-09-17T08:16:57.934Z,96968.97
2022-09-17T08:19:26.043Z,96975.00
2022-09-17T08:21:54.045Z,96968.25
2022-09-17T08:24:22.196Z,96972.47
2022-09-17T08:26:49.873Z,96968.19
2022-09-17T08:29:18.035Z,96972.22
2022-09-17T08:31:47.372Z,96966.63
2022-09-17T08:34:15.543Z,96976.41
2022-09-17T08:36:43.467Z,96977.31
2022-09-17T08:39:12.354Z,96978.69
2022-09-17T08:41:55.015Z,96979.19
2022-09-17T08:44:28.279Z,96994.09
2022-09-17T08:47:06.454Z,96971.19
2022-09-17T08:49:36.770Z,96987.56
2022-09-17T08:52:31.401Z,96982.75
2022-09-17T08:55:07.016Z,96990.38
2022-09-17T08:57:48.716Z,96990.53
2022-09-17T09:00:20.837Z,96987.78
2022-09-17T09:03:05.866Z,96986.16
2022-09-17T09:05:44.737Z,96976.06
2022-09-17T09:08:19.765Z,96955.59
2022-09-17T09:10:56.050Z,96990.00
2022-09-17T09:13:31.590Z,96967.91
2022-09-17T09:16:02.657Z,96988.19
2022-09-17T09:18:36.813Z,96991.28
2022-09-17T09:21:20.148Z,96992.09
2022-09-17T09:23:54.698Z,97007.63
2022-09-17T09:26:44.252Z,96993.34
2022-09-17T09:29:23.006Z,96989.22
2022-09-17T09:32:16.701Z,96984.94
2022-09-17T09:34:59.591Z,96987.06
2022-09-17T09:37:36.757Z,96960.38
2022-09-17T09:40:31.353Z,96982.44
2022-09-17T09:43:04.986Z,96979.84
2022-09-17T09:45:49.110Z,97001.34
2022-09-17T09:48:24.854Z,97021.53
2022-09-17T09:56:08.382Z,97010.69
2022-09-17T09:58:39.034Z,96990.06
2022-09-17T10:01:17.393Z,97030.88
2022-09-17T10:03:47.166Z,97026.19
2022-09-17T10:06:18.517Z,97010.88
2022-09-17T10:09:14.684Z,97015.16
2022-09-17T10:11:44.230Z,97008.91
2022-09-17T10:14:17.437Z,97004.81
2022-09-17T10:16:45.394Z,96984.16
2022-09-17T10:23:08.047Z,97021.66
2022-09-17T10:25:36.747Z,97019.97
2022-09-17T10:28:22.707Z,97020.66
2022-09-17T10:30:57.817Z,97014.25
2022-09-17T10:33:28.775Z,96992.97
2022-09-17T10:36:02.690Z,97014.41
2022-09-17T10:38:36.421Z,97000.72
2022-09-17T10:41:15.858Z,97009.13
2022-09-17T10:43:46.171Z,97002.19
2022-09-17T10:46:18.146Z,97005.81
2022-09-17T10:49:00.442Z,96998.00
2022-09-17T10:51:29.004Z,96981.84
2022-09-17T10:54:29.940Z,97000.91
2022-09-17T10:57:01.637Z,96974.78
2022-09-17T11:00:00.602Z,96991.97
2022-09-17T11:02:55.616Z,96975.25
2022-09-17T11:05:41.537Z,96985.50
2022-09-17T11:08:18.053Z,96970.63
2022-09-17T11:10:54.834Z,96959.94
2022-09-17T11:13:34.054Z,96966.59
2022-09-17T11:16:24.736Z,96976.47
2022-09-17T11:19:02.227Z,96970.16
2022-09-17T11:21:49.717Z,96959.69
2022-09-17T11:24:46.025Z,96952.16
2022-09-17T11:27:24.590Z,96968.34
2022-09-17T11:30:06.340Z,96962.03
2022-09-17T11:32:50.415Z,96959.84
2022-09-17T11:35:21.916Z,96960.81
2022-09-17T11:37:56.599Z,96957.97
2022-09-17T11:40:41.913Z,96958.19
2022-09-17T11:43:20.548Z,96957.53
2022-09-17T11:45:58.676Z,96969.91
2022-09-17T11:48:35.032Z,96966.66
2022-09-17T11:51:08.533Z,96963.31
2022-09-17T11:53:43.855Z,96974.66
2022-09-17T11:56:19.298Z,96983.66
2022-09-17T11:58:51.756Z,96987.88
2022-09-17T12:01:26.963Z,96992.00
2022-09-17T12:04:01.182Z,96971.19
2022-09-17T12:06:39.776Z,96979.88
2022-09-17T12:09:15.142Z,96968.13
2022-09-17T12:11:50.509Z,96961.66
2022-09-17T12:14:24.619Z,96954.34
2022-09-17T12:16:58.874Z,96959.63
2022-09-17T12:19:34.589Z,96951.41
2022-09-17T12:22:07.265Z,96936.03
2022-09-17T12:24:35.077Z,96946.09
2022-09-17T12:27:22.256Z,96941.63
2022-09-17T12:30:10.167Z,96930.69
2022-09-17T12:33:04.031Z,96936.41
2022-09-17T12:36:05.699Z,96902.97
2022-09-17T12:39:02.792Z,96922.94
2022-09-17T12:41:40.070Z,96921.09
2022-09-17T12:44:24.785Z,96908.66
2022-09-17T12:47:07.895Z,96922.69
2022-09-17T12:49:58.706Z,96957.50
2022-09-17T12:52:46.948Z,97014.63
2022-09-17T12:55:28.526Z,97025.03
2022-09-17T12:58:05.343Z,97033.81
2022-09-17T13:00:39.294Z,97021.66
2022-09-17T13:03:17.092Z,97001.81
2022-09-17T13:06:09.086Z,97002.44
2022-09-17T13:09:42.686Z,97009.53
2022-09-17T13:12:19.623Z,96999.44
2022-09-17T13:15:08.222Z,97010.66
2022-09-17T13:17:46.664Z,97005.91
2022-09-17T13:20:23.180Z,97013.16
2022-09-17T13:22:54.297Z,97002.81
2022-09-17T13:25:23.443Z,96999.94
2022-09-17T13:28:07.404Z,96987.00
2022-09-17T13:30:57.961Z,96986.66
2022-09-17T13:34:05.860Z,96978.03
2022-09-17T13:36:46.455Z,96969.69
2022-09-17T13:39:38.829Z,96964.72
2022-09-17T13:42:12.563Z,96943.19
2022-09-17T13:44:46.038Z,96953.13
2022-09-17T13:47:26.481Z,96962.56
2022-09-17T13:49:59.515Z,96936.31
2022-09-17T13:52:37.796Z,96956.00
2022-09-17T13:55:07.938Z,96960.22
2022-09-17T13:57:50.248Z,96933.78
2022-09-17T14:00:52.981Z,96949.50
2022-09-17T14:03:52.544Z,96943.56
2022-09-17T14:06:59.062Z,96958.56
2022-09-17T14:09:39.372Z,96968.25
2022-09-17T14:15:58.253Z,96963.34
2022-09-17T14:19:01.269Z,96959.63
2022-09-17T14:21:33.045Z,96958.09
2022-09-17T14:24:04.341Z,96947.66
2022-09-17T14:27:04.891Z,96967.84
2022-09-17T14:29:52.485Z,96930.41
2022-09-17T14:32:33.628Z,96981.47
2022-09-17T14:35:04.226Z,66418.66
2022-09-17T14:38:34.647Z,66418.66
2022-09-17T14:42:03.776Z,66418.66
2022-09-17T14:45:33.953Z,66418.66
2022-09-17T14:49:27.837Z,66418.66
2022-09-17T14:52:55.421Z,66418.66
2022-09-17T14:56:24.245Z,66418.66
2022-09-17T14:59:53.035Z,66418.66
2022-09-17T15:03:32.610Z,66418.66
2022-09-17T15:07:09.058Z,66418.66
2022-09-17T15:10:36.961Z,66418.66
2022-09-17T15:14:07.422Z,66418.66
2022-09-17T15:17:34.682Z,66418.66
2022-09-17T15:21:07.044Z,66418.66
2022-09-17T15:24:39.647Z,66418.66
2022-09-17T15:28:18.322Z,66418.66
2022-09-17T15:31:44.903Z,66418.66
2022-09-17T15:35:23.891Z,66418.66
2022-09-17T15:38:51.887Z,66418.66
2022-09-17T15:42:29.157Z,66418.66
2022-09-17T15:46:22.650Z,66418.66
2022-09-17T15:50:04.424Z,66418.66
2022-09-17T15:53:35.469Z,66418.66
2022-09-17T15:57:04.860Z,66418.66
2022-09-17T16:00:40.331Z,66418.66
2022-09-17T16:04:53.298Z,66418.66
2022-09-17T16:08:35.723Z,66418.66
2022-09-17T16:12:22.538Z,66418.66
2022-09-17T16:15:50.702Z,66418.66
2022-09-17T16:19:17.409Z,66418.66
2022-09-17T16:27:49.350Z,96914.47
2022-09-17T16:31:17.575Z,66418.66
2022-09-17T16:34:44.007Z,66418.66
2022-09-17T16:38:12.050Z,66418.66
2022-09-17T16:41:40.849Z,66418.66
2022-09-17T16:45:09.331Z,66418.66
2022-09-17T16:48:36.747Z,66418.66
2022-09-17T16:52:06.451Z,66418.66
2022-09-17T16:55:33.375Z,66418.66
2022-09-17T16:58:59.747Z,66418.66
2022-09-17T17:02:28.056Z,66418.66
2022-09-17T17:05:54.387Z,66418.66
2022-09-17T17:09:20.827Z,66418.66
2022-09-17T17:12:47.202Z,66418.66
2022-09-17T17:16:15.203Z,66418.66
2022-09-17T17:19:43.738Z,66418.66
2022-09-17T17:23:10.096Z,66418.66
2022-09-17T17:26:37.068Z,66418.66
2022-09-17T17:30:05.542Z,66418.66
2022-09-17T17:33:32.471Z,66418.66
2022-09-17T17:37:01.062Z,66418.66
2022-09-17T17:40:27.714Z,66418.66
2022-09-17T17:43:54.423Z,66418.66
2022-09-17T17:47:21.634Z,66418.66
2022-09-17T17:50:48.073Z,66418.66
2022-09-17T17:54:16.281Z,66418.66
2022-09-17T17:57:43.109Z,66418.66
2022-09-17T18:01:12.868Z,66418.66
2022-09-17T18:09:11.844Z,96912.03
2022-09-17T18:11:39.714Z,96905.09
2022-09-17T18:14:07.595Z,96910.88
2022-09-17T18:16:36.113Z,96922.72
2022-09-17T18:19:04.054Z,96921.41
2022-09-17T18:21:31.890Z,96930.69
2022-09-17T18:23:59.852Z,96933.66
2022-09-17T18:26:30.324Z,96928.44
2022-09-17T18:28:58.763Z,96943.50
2022-09-17T18:31:28.701Z,96949.28
2022-09-17T18:33:59.301Z,96948.38
2022-09-17T18:36:28.649Z,96950.44
2022-09-17T18:39:03.528Z,96953.97
2022-09-17T18:41:41.585Z,96962.03
2022-09-17T18:44:09.934Z,96960.19
2022-09-17T18:46:39.405Z,96955.75
2022-09-17T18:49:07.406Z,96971.72
2022-09-17T18:51:35.431Z,96960.19
2022-09-17T18:54:03.950Z,96957.81
2022-09-17T18:56:33.593Z,96964.97
2022-09-17T18:59:07.800Z,96965.72
2022-09-17T19:01:36.369Z,96964.31
2022-09-17T19:04:04.992Z,96973.53
2022-09-17T19:06:32.878Z,96975.31
2022-09-17T19:09:02.177Z,96979.16
2022-09-17T19:11:30.288Z,96973.13
2022-09-17T19:13:58.758Z,96976.81
2022-09-17T19:16:28.746Z,96980.41
2022-09-17T19:18:56.662Z,96976.59
2022-09-17T19:21:24.565Z,96983.13
2022-09-17T19:23:53.821Z,96984.41
2022-09-17T19:26:24.035Z,96996.50
2022-09-17T19:28:54.419Z,96986.03
2022-09-17T19:31:23.121Z,96996.13
2022-09-17T19:33:53.122Z,96988.41
2022-09-17T19:36:22.332Z,96987.59
2022-09-17T19:38:50.466Z,96997.06
2022-09-17T19:41:20.149Z,96994.41
2022-09-17T19:43:48.606Z,96983.41
2022-09-17T19:46:19.350Z,96986.53
2022-09-17T19:48:49.009Z,96981.31
2022-09-17T19:51:19.759Z,96984.44
2022-09-17T19:53:47.762Z,96982.81
2022-09-17T19:56:18.763Z,96971.50
2022-09-17T19:58:47.315Z,96984.97
2022-09-17T20:01:15.900Z,96992.56
2022-09-17T20:03:45.362Z,96984.25
2022-09-17T20:06:16.079Z,96988.28
2022-09-17T20:12:26.808Z,96988.09
2022-09-17T20:14:55.201Z,96980.81
2022-09-17T20:17:23.063Z,96979.66
2022-09-17T20:19:50.965Z,96992.28
2022-09-17T20:22:18.878Z,96990.78
2022-09-17T20:24:50.907Z,96985.59
2022-09-17T20:27:19.190Z,96992.09
2022-09-17T20:29:48.902Z,96990.41
2022-09-17T20:32:16.864Z,96990.44
2022-09-17T20:34:45.331Z,96991.06
2022-09-17T20:37:13.965Z,96998.28
2022-09-17T20:39:42.417Z,96999.09
2022-09-17T20:42:10.339Z,96995.53
2022-09-17T20:44:38.275Z,97001.53
2022-09-17T20:47:07.788Z,97004.16
2022-09-17T20:49:35.723Z,97011.19
2022-09-17T20:52:04.819Z,97001.13
2022-09-17T20:54:32.763Z,97001.91
2022-09-17T20:57:00.638Z,97007.03
2022-09-17T20:59:42.483Z,97014.63
2022-09-17T21:02:13.732Z,97011.25
2022-09-17T21:04:41.717Z,97016.75
2022-09-17T21:07:09.602Z,97019.06
2022-09-17T21:09:41.908Z,97014.50
2022-09-17T21:12:10.012Z,97026.72
2022-09-17T21:14:38.349Z,97013.28
2022-09-17T21:17:06.310Z,97009.88
2022-09-17T21:19:36.037Z,97010.38
2022-09-17T21:22:03.900Z,97016.38
2022-09-17T21:24:32.146Z,97010.69
2022-09-17T21:27:00.062Z,97018.13
2022-09-17T21:29:28.338Z,97015.16
2022-09-17T21:31:58.866Z,97013.63
2022-09-17T21:34:27.352Z,97016.91
2022-09-17T21:36:56.818Z,97015.50
2022-09-17T21:39:25.044Z,97012.59
2022-09-17T21:41:52.913Z,97017.56
2022-09-17T21:44:21.164Z,97018.00
2022-09-17T21:46:49.743Z,97015.84
2022-09-17T21:49:18.811Z,97024.19
2022-09-17T21:51:46.806Z,97028.34
2022-09-17T21:54:18.273Z,97034.22
2022-09-17T21:56:46.922Z,97025.66
2022-09-17T21:59:16.808Z,97026.44
2022-09-17T22:01:47.039Z,97031.31
2022-09-17T22:04:17.147Z,97028.94
2022-09-17T22:06:46.172Z,97027.25
2022-09-17T22:09:17.955Z,97025.59
2022-09-17T22:11:46.351Z,97027.72
2022-09-17T22:14:16.271Z,97020.56
2022-09-17T22:16:46.267Z,97015.28
2022-09-17T22:19:17.092Z,97020.69
2022-09-17T22:21:47.384Z,97012.59
2022-09-17T22:24:18.166Z,97017.81
2022-09-17T22:26:50.759Z,97022.31
2022-09-17T22:29:23.853Z,97021.13
2022-09-17T22:31:52.185Z,97020.66
2022-09-17T22:34:22.727Z,97024.50
2022-09-17T22:36:50.795Z,97019.00
2022-09-17T22:39:21.827Z,97023.28
2022-09-17T22:41:50.165Z,97025.53
2022-09-17T22:44:19.615Z,97028.31
2022-09-17T22:46:49.427Z,97021.38
2022-09-17T22:49:17.750Z,97018.66
2022-09-17T22:51:46.658Z,97020.72
2022-09-17T22:54:17.531Z,97016.00
2022-09-17T22:56:47.623Z,97020.22
2022-09-17T22:59:16.343Z,97021.06
2022-09-17T23:01:44.277Z,97035.44
2022-09-17T23:04:12.665Z,97033.22
2022-09-17T23:06:42.487Z,97041.31
2022-09-17T23:09:12.764Z,97035.13
2022-09-17T23:11:41.194Z,97029.66
2022-09-17T23:14:12.832Z,97041.84
2022-09-17T23:16:43.107Z,97037.88
2022-09-17T23:19:11.961Z,97030.75
2022-09-17T23:21:40.157Z,97032.88
2022-09-17T23:24:08.922Z,97025.50
2022-09-17T23:26:36.849Z,97032.41
2022-09-17T23:29:05.956Z,97033.94
2022-09-17T23:31:36.297Z,97041.16
2022-09-17T23:34:05.736Z,97040.88
2022-09-17T23:36:36.152Z,97034.19
2022-09-17T23:39:05.156Z,97031.72
2022-09-17T23:41:35.062Z,97030.63
2022-09-17T23:44:05.078Z,97033.81
2022-09-17T23:46:37.878Z,97029.59
2022-09-17T23:49:06.945Z,97040.69
2022-09-17T23:51:37.387Z,97028.50
2022-09-17T23:54:07.189Z,97027.53
2022-09-17T23:56:36.447Z,97034.34
2022-09-17T23:59:04.875Z,97029.13
